sensor_id;sensor_type;location;lat;lon;timestamp;P1;durP1;ratioP1;P2;durP2;ratioP2
74309;SDS011;62722;51.142;17.052;2022-08-03T09:10:43;3.60;;;3.00;;
74309;SDS011;62722;51.142;17.052;2022-08-03T09:13:08;4.60;;;3.28;;
74309;SDS011;62722;51.142;17.052;2022-08-03T09:15:34;4.55;;;3.00;;
74309;SDS011;62722;51.142;17.052;2022-08-03T09:18:22;3.75;;;3.20;;
74309;SDS011;62722;51.142;17.052;2022-08-03T09:20:52;4.80;;;3.22;;
74309;SDS011;62722;51.142;17.052;2022-08-03T09:23:59;4.53;;;3.13;;
74309;SDS011;62722;51.142;17.052;2022-08-03T09:26:26;3.72;;;2.90;;
74309;SDS011;62722;51.142;17.052;2022-08-03T09:28:57;2.95;;;2.65;;
74309;SDS011;62722;51.142;17.052;2022-08-03T09:31:59;3.33;;;2.90;;
74309;SDS011;62722;51.142;17.052;2022-08-03T09:34:24;4.90;;;2.90;;
74309;SDS011;62722;51.142;17.052;2022-08-03T09:39:10;4.20;;;3.10;;
74309;SDS011;62722;51.142;17.052;2022-08-03T09:41:40;3.40;;;2.60;;
74309;SDS011;62722;51.142;17.052;2022-08-03T09:44:09;5.38;;;2.80;;
74309;SDS011;62722;51.142;17.052;2022-08-03T09:46:46;4.35;;;2.88;;
74309;SDS011;62722;51.142;17.052;2022-08-03T09:49:15;3.95;;;2.45;;
74309;SDS011;62722;51.142;17.052;2022-08-03T09:51:42;4.28;;;2.88;;
74309;SDS011;62722;51.142;17.052;2022-08-03T09:54:12;5.03;;;2.65;;
74309;SDS011;62722;51.142;17.052;2022-08-03T09:56:40;3.28;;;2.97;;
74309;SDS011;62722;51.142;17.052;2022-08-03T09:59:12;3.40;;;2.90;;
74309;SDS011;62722;51.142;17.052;2022-08-03T10:01:48;6.97;;;4.65;;
74309;SDS011;62722;51.142;17.052;2022-08-03T10:04:15;3.90;;;3.00;;
74309;SDS011;62722;51.142;17.052;2022-08-03T10:06:43;5.63;;;2.67;;
74309;SDS011;62722;51.142;17.052;2022-08-03T10:09:17;4.20;;;2.72;;
74309;SDS011;62722;51.142;17.052;2022-08-03T10:11:45;2.97;;;2.67;;
74309;SDS011;62722;51.142;17.052;2022-08-03T10:14:18;3.20;;;2.55;;
74309;SDS011;62722;51.142;17.052;2022-08-03T10:22:09;4.50;;;2.60;;
74309;SDS011;62722;51.142;17.052;2022-08-03T10:28:38;3.67;;;2.50;;
74309;SDS011;62722;51.142;17.052;2022-08-03T10:31:10;3.40;;;2.65;;
74309;SDS011;62722;51.142;17.052;2022-08-03T10:33:42;3.78;;;2.70;;
74309;SDS011;62722;51.142;17.052;2022-08-03T10:36:13;3.83;;;2.65;;
74309;SDS011;62722;51.142;17.052;2022-08-03T11:10:09;4.15;;;3.05;;
74309;SDS011;62722;51.142;17.052;2022-08-03T11:13:03;3.20;;;2.80;;
74309;SDS011;62722;51.142;17.052;2022-08-03T11:15:33;5.15;;;2.60;;
74309;SDS011;62722;51.142;17.052;2022-08-03T11:18:07;3.85;;;2.58;;
74309;SDS011;62722;51.142;17.052;2022-08-03T11:20:42;4.05;;;2.80;;
74309;SDS011;62722;51.142;17.052;2022-08-03T11:23:11;4.03;;;2.85;;
74309;SDS011;62722;51.142;17.052;2022-08-03T11:28:36;4.88;;;2.80;;
74309;SDS011;62722;51.142;17.052;2022-08-03T11:34:12;3.90;;;2.60;;
74309;SDS011;62722;51.142;17.052;2022-08-03T11:39:47;3.22;;;2.53;;
74309;SDS011;62722;51.142;17.052;2022-08-03T11:45:09;3.72;;;2.80;;
74309;SDS011;62722;51.142;17.052;2022-08-03T11:47:37;3.00;;;2.65;;
74309;SDS011;62722;51.142;17.052;2022-08-03T11:50:06;3.92;;;2.80;;
74309;SDS011;62722;51.142;17.052;2022-08-03T11:52:35;3.50;;;2.60;;
74309;SDS011;62722;51.142;17.052;2022-08-03T11:55:15;5.28;;;2.70;;
74309;SDS011;62722;51.142;17.052;2022-08-03T11:57:46;3.58;;;2.67;;
74309;SDS011;62722;51.142;17.052;2022-08-03T12:00:24;3.05;;;2.40;;
74309;SDS011;62722;51.142;17.052;2022-08-03T12:02:57;3.00;;;2.70;;
74309;SDS011;62722;51.142;17.052;2022-08-03T12:05:42;3.63;;;2.63;;
74309;SDS011;62722;51.142;17.052;2022-08-03T12:08:15;3.47;;;2.53;;
74309;SDS011;62722;51.142;17.052;2022-08-03T12:10:45;4.07;;;2.55;;
74309;SDS011;62722;51.142;17.052;2022-08-03T12:13:17;3.80;;;2.58;;
74309;SDS011;62722;51.142;17.052;2022-08-03T12:15:49;3.63;;;2.42;;
74309;SDS011;62722;51.142;17.052;2022-08-03T12:18:17;3.47;;;2.80;;
74309;SDS011;62722;51.142;17.052;2022-08-03T12:20:47;3.60;;;2.58;;
74309;SDS011;62722;51.142;17.052;2022-08-03T12:23:15;3.45;;;2.70;;
74309;SDS011;62722;51.142;17.052;2022-08-03T12:25:43;3.28;;;2.80;;
74309;SDS011;62722;51.142;17.052;2022-08-03T12:28:14;5.43;;;2.92;;
74309;SDS011;62722;51.142;17.052;2022-08-03T12:30:45;2.58;;;2.30;;
74309;SDS011;62722;51.142;17.052;2022-08-03T12:33:15;4.00;;;2.67;;
74309;SDS011;62722;51.142;17.052;2022-08-03T12:35:47;4.38;;;2.50;;
74309;SDS011;62722;51.142;17.052;2022-08-03T12:38:20;3.50;;;2.60;;
74309;SDS011;62722;51.142;17.052;2022-08-03T12:43:46;4.00;;;2.47;;
74309;SDS011;62722;51.142;17.052;2022-08-03T12:46:16;4.03;;;2.80;;
74309;SDS011;62722;51.142;17.052;2022-08-03T12:49:04;3.97;;;2.60;;
74309;SDS011;62722;51.142;17.052;2022-08-03T12:51:33;3.00;;;2.70;;
74309;SDS011;62722;51.142;17.052;2022-08-03T12:56:30;4.13;;;2.58;;
74309;SDS011;62722;51.142;17.052;2022-08-03T12:58:58;4.63;;;2.47;;
74309;SDS011;62722;51.142;17.052;2022-08-03T18:35:30;6.30;;;3.75;;
74309;SDS011;62722;51.142;17.052;2022-08-03T18:38:01;5.68;;;3.75;;
74309;SDS011;62722;51.142;17.052;2022-08-03T18:40:29;6.88;;;4.30;;
74309;SDS011;62722;51.142;17.052;2022-08-03T18:42:56;8.70;;;4.55;;
74309;SDS011;62722;51.142;17.052;2022-08-03T18:45:24;8.30;;;4.60;;
74309;SDS011;62722;51.142;17.052;2022-08-03T18:47:56;6.57;;;4.93;;
74309;SDS011;62722;51.142;17.052;2022-08-03T18:50:33;9.05;;;4.43;;
74309;SDS011;62722;51.142;17.052;2022-08-03T18:53:08;6.35;;;4.35;;
74309;SDS011;62722;51.142;17.052;2022-08-03T18:55:43;7.95;;;4.63;;
74309;SDS011;62722;51.142;17.052;2022-08-03T18:58:14;6.68;;;4.80;;
74309;SDS011;62722;51.142;17.052;2022-08-03T19:00:47;6.65;;;5.43;;
74309;SDS011;62722;51.142;17.052;2022-08-03T19:03:21;10.88;;;7.30;;
74309;SDS011;62722;51.142;17.052;2022-08-03T19:05:56;7.72;;;5.60;;
74309;SDS011;62722;51.142;17.052;2022-08-03T19:08:27;5.60;;;4.82;;
74309;SDS011;62722;51.142;17.052;2022-08-03T19:11:27;8.48;;;4.95;;
74309;SDS011;62722;51.142;17.052;2022-08-03T19:14:01;7.75;;;5.45;;
74309;SDS011;62722;51.142;17.052;2022-08-03T19:16:35;8.20;;;5.82;;
74309;SDS011;62722;51.142;17.052;2022-08-03T19:19:08;7.90;;;5.30;;
74309;SDS011;62722;51.142;17.052;2022-08-03T19:21:38;9.55;;;5.63;;
74309;SDS011;62722;51.142;17.052;2022-08-03T19:24:09;10.07;;;6.43;;
74309;SDS011;62722;51.142;17.052;2022-08-03T19:26:40;9.43;;;5.88;;
74309;SDS011;62722;51.142;17.052;2022-08-03T22:36:46;7.78;;;6.05;;
74309;SDS011;62722;51.142;17.052;2022-08-03T22:39:14;7.70;;;6.80;;
74309;SDS011;62722;51.142;17.052;2022-08-03T22:41:42;8.15;;;6.30;;
74309;SDS011;62722;51.142;17.052;2022-08-03T22:44:10;10.10;;;6.20;;
74309;SDS011;62722;51.142;17.052;2022-08-03T22:46:37;7.88;;;6.32;;
74309;SDS011;62722;51.142;17.052;2022-08-03T22:49:05;7.72;;;6.72;;
74309;SDS011;62722;51.142;17.052;2022-08-03T22:51:35;6.65;;;5.95;;
74309;SDS011;62722;51.142;17.052;2022-08-03T22:54:05;8.65;;;7.28;;
74309;SDS011;62722;51.142;17.052;2022-08-03T22:56:33;7.55;;;6.70;;
74309;SDS011;62722;51.142;17.052;2022-08-03T22:59:00;7.32;;;6.18;;
74309;SDS011;62722;51.142;17.052;2022-08-03T23:01:30;6.70;;;6.00;;
74309;SDS011;62722;51.142;17.052;2022-08-03T23:04:03;9.20;;;6.50;;
74309;SDS011;62722;51.142;17.052;2022-08-03T23:06:32;7.93;;;6.30;;
74309;SDS011;62722;51.142;17.052;2022-08-03T23:09:02;7.88;;;6.15;;
74309;SDS011;62722;51.142;17.052;2022-08-03T23:11:34;8.88;;;6.82;;
74309;SDS011;62722;51.142;17.052;2022-08-03T23:14:03;8.50;;;6.47;;
74309;SDS011;62722;51.142;17.052;2022-08-03T23:16:38;10.25;;;6.90;;
74309;SDS011;62722;51.142;17.052;2022-08-03T23:19:07;8.90;;;6.57;;
74309;SDS011;62722;51.142;17.052;2022-08-03T23:21:35;8.27;;;7.18;;
74309;SDS011;62722;51.142;17.052;2022-08-03T23:24:05;10.25;;;6.78;;
74309;SDS011;62722;51.142;17.052;2022-08-03T23:26:33;9.35;;;7.32;;
74309;SDS011;62722;51.142;17.052;2022-08-03T23:29:01;8.02;;;6.72;;
74309;SDS011;62722;51.142;17.052;2022-08-03T23:31:30;9.80;;;7.15;;
74309;SDS011;62722;51.142;17.052;2022-08-03T23:33:59;9.23;;;7.18;;
